createdAt,value
2022-08-23T00:01:36.340Z,68.83
2022-08-23T00:04:08.144Z,68.52
2022-08-23T00:06:38.020Z,68.28
2022-08-23T00:09:06.509Z,69.53
2022-08-23T00:11:47.732Z,68.94
2022-08-23T00:14:22.581Z,68.08
2022-08-23T00:16:50.462Z,70.19
2022-08-23T00:19:19.931Z,69.65
2022-08-23T00:21:48.625Z,69.45
2022-08-23T00:24:17.184Z,68.08
2022-08-23T00:26:59.270Z,70.45
2022-08-23T00:29:33.502Z,68.90
2022-08-23T00:32:01.808Z,69.23
2022-08-23T00:34:29.467Z,68.89
2022-08-23T00:36:57.494Z,68.69
2022-08-23T00:39:25.632Z,69.42
2022-08-23T00:41:57.975Z,68.58
2022-08-23T00:44:49.294Z,68.17
2022-08-23T00:47:35.890Z,67.50
2022-08-23T00:50:33.192Z,68.61
2022-08-23T00:53:25.374Z,69.90
2022-08-23T00:55:57.577Z,70.86
2022-08-23T00:58:26.197Z,70.56
2022-08-23T01:00:55.982Z,69.94
2022-08-23T01:03:25.419Z,69.45
2022-08-23T01:06:14.772Z,69.04
2022-08-23T01:08:46.071Z,70.45
2022-08-23T01:11:38.038Z,70.12
2022-08-23T01:14:15.826Z,70.97
2022-08-23T01:16:54.376Z,68.76
2022-08-23T01:19:31.624Z,68.91
2022-08-23T01:22:13.591Z,68.40
2022-08-23T01:25:06.265Z,67.07
2022-08-23T01:27:31.535Z,66.99
2022-08-23T01:30:00.669Z,67.49
2022-08-23T01:32:32.489Z,67.91
2022-08-23T01:35:00.381Z,67.03
2022-08-23T01:37:28.310Z,68.06
2022-08-23T01:39:58.979Z,68.89
2022-08-23T01:42:29.011Z,69.34
2022-08-23T01:44:56.899Z,69.43
2022-08-23T01:47:25.024Z,68.87
2022-08-23T01:49:53.099Z,69.59
2022-08-23T01:52:21.393Z,68.28
2022-08-23T01:54:49.282Z,69.20
2022-08-23T01:57:17.724Z,68.88
2022-08-23T01:59:48.479Z,68.71
2022-08-23T02:02:17.060Z,68.11
2022-08-23T02:04:44.952Z,67.97
2022-08-23T02:07:12.513Z,67.98
2022-08-23T02:09:40.365Z,67.94
2022-08-23T02:12:17.347Z,68.10
2022-08-23T02:14:45.581Z,68.50
2022-08-23T02:17:17.883Z,67.74
2022-08-23T02:19:45.622Z,67.80
2022-08-23T02:22:13.285Z,68.39
2022-08-23T02:24:46.892Z,68.36
2022-08-23T02:27:16.004Z,68.08
2022-08-23T02:29:45.500Z,67.58
2022-08-23T02:32:15.753Z,66.76
2022-08-23T02:35:04.639Z,68.81
2022-08-23T02:37:34.500Z,68.95
2022-08-23T02:40:03.982Z,68.73
2022-08-23T02:42:31.730Z,67.56
2022-08-23T02:45:02.579Z,68.40
2022-08-23T02:47:35.244Z,67.96
2022-08-23T02:50:09.264Z,68.66
2022-08-23T02:52:36.720Z,69.34
2022-08-23T02:55:05.394Z,68.72
2022-08-23T02:57:35.191Z,68.24
2022-08-23T03:00:03.718Z,68.41
2022-08-23T03:02:32.711Z,68.45
2022-08-23T03:05:00.685Z,68.72
2022-08-23T03:07:31.412Z,69.19
2022-08-23T03:10:04.953Z,69.46
2022-08-23T03:12:38.527Z,69.60
2022-08-23T03:15:07.498Z,69.96
2022-08-23T03:17:35.828Z,69.53
2022-08-23T03:20:04.775Z,70.69
2022-08-23T03:22:36.301Z,69.13
2022-08-23T03:25:06.902Z,68.47
2022-08-23T03:27:35.824Z,67.91
2022-08-23T03:30:17.953Z,68.24
2022-08-23T03:32:49.520Z,68.89
2022-08-23T03:35:17.499Z,68.92
2022-08-23T03:37:45.313Z,69.78
2022-08-23T03:40:14.071Z,68.94
2022-08-23T03:42:41.564Z,70.41
2022-08-23T03:45:09.553Z,69.31
2022-08-23T03:47:37.393Z,71.10
2022-08-23T03:50:05.847Z,70.82
2022-08-23T03:52:34.214Z,70.07
2022-08-23T03:55:02.141Z,68.99
2022-08-23T03:57:34.152Z,68.58
2022-08-23T04:00:02.263Z,68.49
2022-08-23T04:02:36.158Z,69.08
2022-08-23T04:05:11.431Z,69.30
2022-08-23T04:07:40.963Z,68.60
2022-08-23T04:10:12.848Z,67.93
2022-08-23T04:12:41.338Z,68.16
2022-08-23T04:15:14.371Z,67.38
2022-08-23T04:17:43.010Z,67.96
2022-08-23T04:20:11.255Z,67.93
2022-08-23T04:22:39.190Z,68.16
2022-08-23T04:25:10.118Z,67.95
2022-08-23T04:27:55.270Z,67.65
2022-08-23T04:30:23.215Z,67.54
2022-08-23T04:32:51.592Z,67.52
2022-08-23T04:35:19.379Z,67.20
2022-08-23T04:37:47.355Z,67.78
2022-08-23T04:40:40.371Z,67.94
2022-08-23T04:43:18.661Z,68.38
2022-08-23T04:45:57.577Z,68.74
2022-08-23T04:48:25.973Z,68.25
2022-08-23T04:50:53.598Z,66.94
2022-08-23T04:53:21.305Z,67.89
2022-08-23T04:55:52.567Z,68.09
2022-08-23T04:58:20.616Z,68.02
2022-08-23T05:00:53.027Z,67.97
2022-08-23T05:03:23.682Z,68.04
2022-08-23T05:05:54.043Z,67.55
2022-08-23T05:08:22.474Z,65.99
2022-08-23T05:10:50.319Z,66.84
2022-08-23T05:13:18.151Z,65.41
2022-08-23T05:15:51.167Z,67.24
2022-08-23T05:18:29.443Z,68.44
2022-08-23T05:20:57.666Z,68.06
2022-08-23T05:23:31.994Z,67.79
2022-08-23T05:26:01.998Z,69.25
2022-08-23T05:28:34.966Z,69.96
2022-08-23T05:31:11.501Z,68.24
2022-08-23T05:33:41.146Z,69.73
2022-08-23T05:36:12.803Z,69.83
2022-08-23T05:38:41.372Z,69.24
2022-08-23T05:41:10.331Z,68.21
2022-08-23T05:43:42.810Z,69.50
2022-08-23T05:46:16.148Z,69.16
2022-08-23T05:48:51.031Z,69.12
2022-08-23T05:51:18.947Z,71.19
2022-08-23T05:53:47.694Z,70.10
2022-08-23T05:56:23.788Z,69.92
2022-08-23T05:58:56.624Z,68.66
2022-08-23T06:01:29.159Z,67.92
2022-08-23T06:04:01.452Z,68.08
2022-08-23T06:06:36.388Z,69.27
2022-08-23T06:09:08.324Z,69.56
2022-08-23T06:11:36.736Z,68.07
2022-08-23T06:14:15.630Z,68.04
2022-08-23T06:16:51.694Z,67.50
2022-08-23T06:19:24.135Z,67.53
2022-08-23T06:21:55.886Z,67.66
2022-08-23T06:24:23.988Z,67.64
2022-08-23T06:26:51.993Z,68.01
2022-08-23T06:29:20.269Z,67.23
2022-08-23T06:31:50.835Z,67.29
2022-08-23T06:34:33.755Z,67.78
2022-08-23T06:37:06.130Z,67.51
2022-08-23T06:39:37.653Z,68.75
2022-08-23T06:42:22.228Z,67.59
2022-08-23T06:45:00.900Z,67.49
2022-08-23T06:47:29.325Z,67.19
2022-08-23T06:49:58.566Z,67.33
2022-08-23T06:52:29.793Z,66.63
2022-08-23T06:54:58.652Z,66.24
2022-08-23T06:57:26.570Z,66.27
2022-08-23T06:59:56.064Z,66.61
2022-08-23T07:02:24.895Z,65.80
2022-08-23T07:04:58.915Z,66.18
2022-08-23T07:07:37.551Z,66.61
2022-08-23T07:14:10.935Z,68.55
2022-08-23T07:16:44.698Z,68.46
2022-08-23T07:19:14.966Z,67.40
2022-08-23T07:21:43.829Z,66.85
2022-08-23T07:24:13.835Z,67.47
2022-08-23T07:26:42.766Z,67.56
2022-08-23T07:29:11.754Z,66.77
2022-08-23T07:31:43.671Z,66.59
2022-08-23T07:34:11.900Z,66.08
2022-08-23T07:36:41.486Z,66.20
2022-08-23T07:39:09.962Z,64.91
2022-08-23T07:41:38.870Z,64.61
2022-08-23T07:44:08.914Z,64.81
2022-08-23T07:46:39.800Z,65.35
2022-08-23T07:49:11.273Z,64.33
2022-08-23T07:51:40.304Z,65.10
2022-08-23T08:00:43.535Z,64.27
2022-08-23T08:03:13.754Z,64.43
2022-08-23T08:05:42.037Z,63.64
2022-08-23T08:08:10.196Z,63.36
2022-08-23T08:10:43.946Z,63.06
2022-08-23T08:13:11.561Z,62.81
2022-08-23T08:15:45.819Z,62.76
2022-08-23T08:18:25.872Z,62.83
2022-08-23T08:20:59.494Z,60.38
2022-08-23T08:23:30.495Z,59.16
2022-08-23T08:26:06.639Z,59.10
2022-08-23T08:28:36.918Z,60.54
2022-08-23T08:31:07.247Z,60.37
2022-08-23T08:33:35.435Z,58.24
2022-08-23T08:36:04.944Z,59.31
2022-08-23T08:38:48.506Z,60.29
2022-08-23T08:41:26.640Z,59.26
2022-08-23T08:44:11.947Z,58.47
2022-08-23T08:46:49.405Z,58.16
2022-08-23T08:49:58.387Z,56.83
2022-08-23T08:52:49.885Z,59.12
2022-08-23T08:55:34.956Z,57.42
2022-08-23T08:58:09.132Z,57.69
2022-08-23T09:00:41.474Z,55.35
2022-08-23T09:03:15.242Z,55.64
2022-08-23T09:05:50.601Z,53.97
2022-08-23T09:08:35.220Z,52.41
2022-08-23T09:11:15.997Z,54.05
2022-08-23T09:13:53.902Z,55.57
2022-08-23T09:16:54.867Z,55.09
2022-08-23T09:19:25.823Z,54.88
2022-08-23T09:22:04.433Z,54.46
2022-08-23T09:24:42.239Z,54.70
2022-08-23T09:27:18.389Z,54.65
2022-08-23T09:30:05.442Z,54.41
2022-08-23T09:32:44.118Z,54.24
2022-08-23T09:35:17.721Z,54.50
2022-08-23T09:38:20.141Z,53.43
2022-08-23T09:40:51.427Z,53.61
2022-08-23T09:43:28.271Z,52.68
2022-08-23T09:46:01.973Z,53.50
2022-08-23T09:48:49.253Z,53.67
2022-08-23T09:51:32.624Z,53.10
2022-08-23T09:54:23.714Z,52.80
2022-08-23T09:57:02.909Z,53.21
2022-08-23T09:59:45.631Z,52.95
2022-08-23T10:02:38.307Z,51.67
2022-08-23T10:05:20.824Z,51.31
2022-08-23T10:08:00.995Z,53.06
2022-08-23T10:10:38.936Z,51.57
2022-08-23T10:13:07.802Z,50.69
2022-08-23T10:16:06.794Z,51.69
2022-08-23T10:18:51.492Z,50.14
2022-08-23T10:21:42.692Z,51.83
2022-08-23T10:24:43.778Z,50.33
2022-08-23T10:27:38.981Z,51.54
2022-08-23T10:30:12.822Z,51.60
2022-08-23T10:33:01.122Z,51.00
2022-08-23T10:35:51.731Z,53.68
2022-08-23T10:38:40.393Z,51.17
2022-08-23T10:41:22.424Z,51.89
2022-08-23T10:43:53.967Z,53.33
2022-08-23T10:46:26.174Z,53.44
2022-08-23T10:48:58.162Z,52.02
2022-08-23T10:51:32.389Z,50.55
2022-08-23T10:54:12.906Z,50.83
2022-08-23T10:56:50.856Z,55.27
2022-08-23T10:59:26.321Z,53.68
2022-08-23T11:02:38.322Z,53.75
2022-08-23T11:05:31.264Z,53.66
2022-08-23T11:08:08.652Z,53.59
2022-08-23T11:10:56.192Z,52.33
2022-08-23T11:13:30.090Z,54.49
2022-08-23T11:16:13.059Z,51.90
2022-08-23T11:18:49.230Z,50.21
2022-08-23T11:21:19.593Z,51.39
2022-08-23T11:23:59.059Z,50.89
2022-08-23T11:26:30.225Z,51.03
2022-08-23T11:29:11.023Z,53.65
2022-08-23T11:31:50.853Z,53.71
2022-08-23T11:34:29.373Z,53.29
2022-08-23T11:37:26.384Z,53.77
2022-08-23T11:39:59.003Z,54.58
2022-08-23T11:42:44.321Z,54.83
2022-08-23T11:45:27.635Z,55.67
2022-08-23T11:48:13.733Z,55.06
2022-08-23T11:51:27.567Z,54.86
2022-08-23T11:54:13.480Z,53.64
2022-08-23T11:56:58.542Z,52.66
2022-08-23T12:00:07.161Z,52.13
2022-08-23T12:02:38.933Z,52.99
2022-08-23T12:05:18.153Z,51.68
2022-08-23T12:07:54.035Z,50.90
2022-08-23T12:10:42.223Z,52.26
2022-08-23T12:13:18.840Z,53.72
2022-08-23T12:16:05.526Z,53.21
2022-08-23T12:18:47.630Z,51.58
2022-08-23T12:21:27.781Z,51.00
2022-08-23T12:24:02.851Z,51.47
2022-08-23T12:26:43.565Z,50.82
2022-08-23T12:29:41.858Z,48.83
2022-08-23T12:32:48.598Z,48.28
2022-08-23T12:35:40.825Z,49.06
2022-08-23T12:38:18.687Z,50.30
2022-08-23T12:40:50.714Z,49.43
2022-08-23T12:43:26.984Z,48.22
2022-08-23T12:46:01.242Z,48.77
2022-08-23T12:48:33.748Z,50.30
2022-08-23T12:51:03.291Z,50.81
2022-08-23T12:53:45.359Z,49.91
2022-08-23T12:56:22.818Z,51.10
2022-08-23T12:59:05.109Z,51.82
2022-08-23T13:01:35.806Z,51.67
2022-08-23T13:04:11.189Z,51.29
2022-08-23T13:06:51.309Z,53.63
2022-08-23T13:09:27.354Z,53.34
2022-08-23T13:11:58.084Z,53.66
2022-08-23T13:14:31.176Z,54.36
2022-08-23T13:17:26.020Z,55.16
2022-08-23T13:19:59.162Z,54.74
2022-08-23T13:22:27.396Z,55.39
2022-08-23T13:25:28.020Z,54.58
2022-08-23T13:27:56.261Z,55.69
2022-08-23T13:30:27.392Z,54.91
2022-08-23T13:33:04.222Z,54.82
2022-08-23T13:35:43.276Z,55.79
2022-08-23T13:38:21.222Z,55.97
2022-08-23T13:41:35.597Z,54.29
2022-08-23T13:44:16.953Z,55.94
2022-08-23T13:46:48.180Z,55.62
2022-08-23T13:49:26.334Z,55.20
2022-08-23T13:52:32.987Z,53.77
2022-08-23T13:54:50.927Z,52.87
2022-08-23T13:57:22.487Z,52.21
2022-08-23T13:59:54.009Z,51.78
2022-08-23T14:02:24.249Z,51.42
2022-08-23T14:04:52.321Z,50.30
2022-08-23T14:07:20.727Z,51.36
2022-08-23T14:09:52.012Z,51.42
2022-08-23T14:12:25.400Z,52.21
2022-08-23T14:14:56.743Z,49.60
2022-08-23T14:17:25.317Z,49.97
2022-08-23T14:22:41.041Z,49.59
2022-08-23T14:25:10.095Z,49.54
2022-08-23T14:27:40.114Z,49.37
2022-08-23T14:30:13.240Z,48.12
2022-08-23T14:32:45.831Z,49.24
2022-08-23T14:35:16.874Z,49.32
2022-08-23T14:38:03.775Z,50.06
2022-08-23T14:40:33.740Z,49.23
2022-08-23T14:43:03.869Z,48.39
2022-08-23T14:45:32.969Z,48.10
2022-08-23T14:48:03.454Z,48.46
2022-08-23T14:50:37.909Z,50.03
2022-08-23T14:53:11.833Z,50.99
2022-08-23T14:56:02.426Z,51.64
2022-08-23T14:58:46.070Z,49.88
2022-08-23T15:01:20.243Z,50.37
2022-08-23T15:03:51.412Z,49.62
2022-08-23T15:06:21.186Z,50.46
2022-08-23T15:08:53.536Z,49.90
2022-08-23T15:14:12.456Z,51.67
2022-08-23T15:16:40.327Z,51.35
2022-08-23T15:19:10.434Z,49.66
2022-08-23T15:21:38.569Z,49.92
2022-08-23T15:24:07.058Z,49.79
2022-08-23T15:26:35.167Z,49.86
2022-08-23T15:29:03.393Z,50.61
2022-08-23T15:31:31.298Z,50.27
2022-08-23T15:34:01.032Z,50.84
2022-08-23T15:36:35.315Z,50.47
2022-08-23T15:39:03.073Z,50.20
2022-08-23T15:41:32.035Z,52.53
2022-08-23T15:43:59.814Z,51.99
2022-08-23T15:46:27.638Z,52.46
2022-08-23T15:49:04.715Z,53.08
2022-08-23T15:51:35.431Z,52.04
2022-08-23T15:54:05.505Z,52.12
2022-08-23T15:56:43.955Z,51.71
2022-08-23T15:59:19.402Z,51.85
2022-08-23T16:01:48.825Z,51.83
2022-08-23T16:04:18.209Z,51.50
2022-08-23T16:06:46.591Z,52.06
2022-08-23T16:09:24.011Z,52.38
2022-08-23T16:11:54.329Z,53.38
2022-08-23T16:14:28.463Z,53.63
2022-08-23T16:16:57.098Z,53.39
2022-08-23T16:19:27.184Z,52.90
2022-08-23T16:21:59.347Z,52.71
2022-08-23T16:24:36.460Z,53.63
2022-08-23T16:27:08.864Z,53.05
2022-08-23T16:29:39.515Z,52.52
2022-08-23T16:32:08.431Z,53.52
2022-08-23T16:34:36.221Z,52.98
2022-08-23T16:37:08.112Z,53.06
2022-08-23T16:39:37.589Z,53.43
2022-08-23T16:42:11.122Z,53.83
2022-08-23T16:44:39.459Z,54.44
2022-08-23T16:47:10.636Z,55.05
2022-08-23T16:49:39.161Z,54.22
2022-08-23T16:52:08.223Z,53.75
2022-08-23T16:54:36.754Z,53.22
2022-08-23T16:57:04.780Z,53.56
2022-08-23T16:59:36.175Z,54.25
2022-08-23T17:02:11.397Z,56.00
2022-08-23T17:04:42.966Z,55.27
2022-08-23T17:07:10.709Z,54.47
2022-08-23T17:09:38.474Z,55.43
2022-08-23T17:12:07.028Z,54.73
2022-08-23T17:14:34.587Z,55.17
2022-08-23T17:17:03.811Z,54.64
2022-08-23T17:19:31.726Z,54.61
2022-08-23T17:22:00.150Z,54.72
2022-08-23T17:24:27.960Z,54.50
2022-08-23T17:26:56.796Z,54.90
2022-08-23T17:29:24.688Z,55.49
2022-08-23T17:31:52.407Z,55.57
2022-08-23T17:34:21.206Z,55.55
2022-08-23T17:36:52.378Z,55.81
2022-08-23T17:39:32.232Z,56.08
2022-08-23T17:42:04.001Z,56.39
2022-08-23T17:44:36.897Z,56.23
2022-08-23T17:47:07.705Z,55.46
2022-08-23T17:49:36.972Z,55.78
2022-08-23T17:52:15.517Z,56.50
2022-08-23T17:54:43.579Z,56.44
2022-08-23T17:57:11.721Z,57.28
2022-08-23T17:59:41.751Z,58.18
2022-08-23T18:02:09.702Z,58.35
2022-08-23T18:04:38.941Z,58.31
2022-08-23T18:07:08.249Z,57.40
2022-08-23T18:09:46.497Z,56.54
2022-08-23T18:12:17.294Z,57.34
2022-08-23T18:14:52.640Z,57.99
2022-08-23T18:17:22.581Z,58.51
2022-08-23T18:19:51.242Z,60.05
2022-08-23T18:22:24.453Z,61.21
2022-08-23T18:24:53.323Z,62.25
2022-08-23T18:27:43.049Z,60.72
2022-08-23T18:30:16.828Z,61.01
2022-08-23T18:32:51.755Z,59.55
2022-08-23T18:35:23.168Z,59.76
2022-08-23T18:37:53.081Z,60.23
2022-08-23T18:40:21.725Z,61.22
2022-08-23T18:42:54.563Z,60.67
2022-08-23T18:45:32.105Z,60.92
2022-08-23T18:48:00.450Z,61.71
2022-08-23T18:50:41.707Z,62.74
2022-08-23T18:53:20.065Z,63.09
2022-08-23T18:55:50.461Z,62.91
2022-08-23T18:58:20.223Z,64.40
2022-08-23T19:00:50.909Z,63.41
2022-08-23T19:03:19.740Z,62.09
2022-08-23T19:05:50.531Z,62.74
2022-08-23T19:08:21.946Z,63.46
2022-08-23T19:10:49.917Z,63.80
2022-08-23T19:13:18.416Z,63.20
2022-08-23T19:15:53.284Z,63.76
2022-08-23T19:18:21.733Z,62.69
2022-08-23T19:20:50.100Z,63.73
2022-08-23T19:23:26.202Z,62.38
2022-08-23T19:25:59.454Z,62.72
2022-08-23T19:28:28.316Z,63.73
2022-08-23T19:30:56.979Z,62.76
2022-08-23T19:33:25.746Z,63.11
2022-08-23T19:35:54.125Z,62.65
2022-08-23T19:38:29.735Z,62.42
2022-08-23T19:40:58.660Z,62.71
2022-08-23T19:43:27.366Z,63.97
2022-08-23T19:45:59.902Z,63.49
2022-08-23T19:48:28.559Z,64.03
2022-08-23T19:50:56.519Z,63.30
2022-08-23T19:53:24.652Z,63.53
2022-08-23T19:55:53.137Z,63.29
2022-08-23T19:58:31.143Z,64.24
2022-08-23T20:01:05.335Z,63.84
2022-08-23T20:03:33.894Z,63.21
2022-08-23T20:06:02.914Z,63.85
2022-08-23T20:08:32.766Z,64.34
2022-08-23T20:11:01.784Z,63.94
2022-08-23T20:13:30.520Z,65.54
2022-08-23T20:15:58.673Z,65.48
2022-08-23T20:18:30.212Z,66.11
2022-08-23T20:21:05.189Z,64.88
2022-08-23T20:23:51.958Z,66.19
2022-08-23T20:26:22.779Z,66.34
2022-08-23T20:28:59.639Z,65.82
2022-08-23T20:31:35.799Z,66.14
2022-08-23T20:34:05.432Z,65.92
2022-08-23T20:36:33.674Z,66.15
2022-08-23T20:39:02.189Z,66.55
2022-08-23T20:41:39.474Z,66.45
2022-08-23T20:44:08.807Z,67.65
2022-08-23T20:46:39.777Z,67.23
2022-08-23T20:49:13.003Z,65.85
2022-08-23T20:51:41.410Z,65.45
2022-08-23T20:54:10.084Z,65.25
2022-08-23T20:56:39.182Z,65.85
2022-08-23T20:59:14.773Z,65.01
2022-08-23T21:01:44.725Z,64.71
2022-08-23T21:04:13.230Z,63.71
2022-08-23T21:06:51.686Z,66.31
2022-08-23T21:09:29.370Z,67.25
2022-08-23T21:11:58.223Z,66.05
2022-08-23T21:14:26.144Z,64.51
2022-08-23T21:16:56.613Z,65.63
2022-08-23T21:19:30.379Z,65.84
2022-08-23T21:21:58.637Z,67.73
2022-08-23T21:24:26.478Z,66.18
2022-08-23T21:26:54.185Z,67.35
2022-08-23T21:29:22.213Z,65.91
2022-08-23T21:31:49.800Z,67.99
2022-08-23T21:34:19.918Z,68.01
2022-08-23T21:36:47.911Z,68.12
2022-08-23T21:39:15.850Z,67.96
2022-08-23T21:41:49.304Z,67.09
2022-08-23T21:44:20.365Z,66.96
2022-08-23T21:46:50.771Z,67.27
2022-08-23T21:49:24.239Z,67.87
2022-08-23T21:51:56.037Z,69.17
2022-08-23T21:54:24.677Z,69.56
2022-08-23T21:56:55.945Z,69.33
2022-08-23T21:59:26.895Z,67.30
2022-08-23T22:01:54.818Z,67.89
2022-08-23T22:04:23.398Z,68.56
2022-08-23T22:06:51.000Z,67.59
2022-08-23T22:09:25.691Z,67.20
2022-08-23T22:12:00.380Z,66.15
2022-08-23T22:14:31.377Z,68.63
2022-08-23T22:17:00.756Z,67.90
2022-08-23T22:19:29.370Z,66.53
2022-08-23T22:21:57.262Z,68.30
2022-08-23T22:24:26.334Z,67.87
2022-08-23T22:26:55.550Z,68.07
2022-08-23T22:29:23.717Z,68.87
2022-08-23T22:31:51.969Z,69.31
2022-08-23T22:34:25.732Z,70.28
2022-08-23T22:36:55.848Z,69.62
2022-08-23T22:39:24.046Z,71.12
2022-08-23T22:41:53.792Z,69.38
2022-08-23T22:44:22.531Z,71.32
2022-08-23T22:46:51.967Z,71.02
2022-08-23T22:49:20.193Z,71.25
2022-08-23T22:51:52.074Z,70.42
2022-08-23T22:54:25.318Z,70.46
2022-08-23T22:56:56.513Z,73.07
2022-08-23T22:59:27.647Z,71.78
2022-08-23T23:02:03.513Z,72.50
2022-08-23T23:04:32.933Z,73.51
2022-08-23T23:07:01.400Z,71.60
2022-08-23T23:09:29.305Z,70.70
2022-08-23T23:11:57.561Z,71.85
2022-08-23T23:14:28.979Z,70.94
2022-08-23T23:16:57.103Z,71.14
2022-08-23T23:19:47.293Z,69.83
2022-08-23T23:22:15.567Z,69.90
2022-08-23T23:24:45.674Z,69.26
2022-08-23T23:27:16.599Z,69.21
2022-08-23T23:29:44.746Z,69.44
2022-08-23T23:32:12.296Z,67.62
2022-08-23T23:34:40.371Z,68.47
2022-08-23T23:37:08.538Z,68.12
2022-08-23T23:39:36.369Z,68.80
2022-08-23T23:42:04.221Z,69.84
2022-08-23T23:44:32.371Z,70.97
2022-08-23T23:47:01.964Z,71.87
2022-08-23T23:49:33.800Z,71.75
2022-08-23T23:52:04.932Z,70.95
2022-08-23T23:54:34.105Z,72.03
2022-08-23T23:57:03.067Z,72.39
2022-08-23T23:59:31.590Z,72.28
